Time;durP1;ratioP1;P1;durP2;ratioP2;P2;SDS_P1;SDS_P2;PMS_P1;PMS_P2;Temp;Humidity;BMP_temperature;BMP_pressure;BME280_temperature;BME280_humidity;BME280_pressure;Samples;Min_cycle;Max_cycle;Signal;HPM_P1;HPM_P2
2021/06/10 00:00:50;;;;;;;0.40;0.30;;;14.40;99.90;;;;;;4953760;28;20405;-72
2021/06/10 00:03:16;;;;;;;0.40;0.20;;;14.40;99.90;;;;;;4953013;29;20402;-74
2021/06/10 00:05:42;;;;;;;0.40;0.30;;;14.40;99.90;;;;;;4952621;29;20398;-72
2021/06/10 00:08:10;;;;;;;0.40;0.20;;;14.40;99.90;;;;;;4953079;28;20386;-72
2021/06/10 00:10:37;;;;;;;0.40;0.20;;;14.30;99.90;;;;;;4952505;29;20401;-72
2021/06/10 00:13:03;;;;;;;0.40;0.20;;;14.30;99.90;;;;;;4953087;28;20393;-72
2021/06/10 00:15:32;;;;;;;0.40;0.20;;;14.30;99.90;;;;;;4990112;28;20410;-72
2021/06/10 00:17:59;;;;;;;0.40;0.30;;;14.30;99.90;;;;;;4991584;28;20386;-72
2021/06/10 00:20:27;;;;;;;0.40;0.20;;;14.30;99.90;;;;;;4991451;28;20763;-72
2021/06/10 00:22:54;;;;;;;0.40;0.30;;;14.30;99.90;;;;;;4987534;28;20787;-72
2021/06/10 00:25:21;;;;;;;0.40;0.20;;;14.40;99.90;;;;;;4971897;28;20400;-74
2021/06/10 00:27:46;;;;;;;0.40;0.20;;;14.40;99.90;;;;;;4972438;28;20767;-72
2021/06/10 00:30:15;;;;;;;0.40;0.20;;;14.30;99.90;;;;;;4972047;28;20420;-72
2021/06/10 00:32:41;;;;;;;0.40;0.30;;;14.20;99.90;;;;;;4971654;28;20796;-72
2021/06/10 00:35:08;;;;;;;0.40;0.30;;;14.20;99.90;;;;;;4972327;28;20431;-72
2021/06/10 00:37:34;;;;;;;0.40;0.20;;;14.20;99.90;;;;;;4971616;28;20396;-72
2021/06/10 00:39:59;;;;;;;0.40;0.20;;;14.20;99.90;;;;;;4972350;28;20449;-72
2021/06/10 00:42:25;;;;;;;0.40;0.20;;;14.20;99.90;;;;;;4971291;28;20416;-72
2021/06/10 00:44:51;;;;;;;0.40;0.28;;;14.10;99.90;;;;;;4972225;28;20404;-72
2021/06/10 00:47:17;;;;;;;0.40;0.20;;;14.20;99.90;;;;;;4972173;28;20393;-72
2021/06/10 00:49:43;;;;;;;0.40;0.20;;;14.20;99.90;;;;;;4971255;28;20808;-73
2021/06/10 00:52:10;;;;;;;0.40;0.20;;;14.10;99.90;;;;;;4972149;28;20392;-72
2021/06/10 00:54:37;;;;;;;0.40;0.30;;;14.00;99.90;;;;;;4970983;28;20952;-73
2021/06/10 00:57:03;;;;;;;0.40;0.20;;;14.10;99.90;;;;;;4972324;28;20395;-72
2021/06/10 00:59:29;;;;;;;0.40;0.20;;;14.00;99.90;;;;;;4970887;28;20400;-73
2021/06/10 01:01:55;;;;;;;0.40;0.20;;;14.00;99.90;;;;;;4971571;28;20865;-73
2021/06/10 01:04:20;;;;;;;0.40;0.20;;;14.00;99.90;;;;;;4971554;28;20384;-75
2021/06/10 01:06:51;;;;;;;0.40;0.20;;;14.00;99.90;;;;;;4971307;28;20389;-73
2021/06/10 01:09:56;;;;;;;0.40;0.20;;;14.00;99.90;;;;;;4971942;28;20420;-72
2021/06/10 01:12:26;;;;;;;0.40;0.20;;;14.00;99.90;;;;;;4941572;28;20410;-74
2021/06/10 01:15:05;;;;;;;0.40;0.30;;;14.00;99.90;;;;;;4986174;28;20501;-72
2021/06/10 01:17:35;;;;;;;0.40;0.20;;;14.00;99.90;;;;;;4990161;28;20447;-72
2021/06/10 01:20:00;;;;;;;0.40;0.20;;;13.90;99.90;;;;;;4990983;28;20449;-72
2021/06/10 01:22:26;;;;;;;0.40;0.20;;;13.90;99.90;;;;;;4990276;28;20398;-72
2021/06/10 01:25:00;;;;;;;0.40;0.30;;;13.90;99.90;;;;;;4990019;28;20438;-72
2021/06/10 01:27:26;;;;;;;0.40;0.20;;;13.80;99.90;;;;;;4990152;28;20908;-73
2021/06/10 01:30:05;;;;;;;0.40;0.20;;;13.90;99.90;;;;;;4991105;28;20422;-72
2021/06/10 01:32:33;;;;;;;0.40;0.20;;;13.90;99.90;;;;;;4990089;28;20425;-72
2021/06/10 01:35:01;;;;;;;0.40;0.20;;;13.90;99.90;;;;;;4991338;28;20406;-72
2021/06/10 01:37:27;;;;;;;0.40;0.30;;;13.80;99.90;;;;;;4990562;28;20421;-72
2021/06/10 01:39:54;;;;;;;0.40;0.30;;;13.80;99.90;;;;;;4991153;28;20401;-71
2021/06/10 01:42:21;;;;;;;0.40;0.30;;;13.80;99.90;;;;;;4990958;28;20387;-72
2021/06/10 01:44:47;;;;;;;0.40;0.30;;;13.80;99.90;;;;;;4988570;28;20936;-72
2021/06/10 01:47:16;;;;;;;0.40;0.30;;;13.80;99.90;;;;;;4991070;28;20395;-72
2021/06/10 01:49:43;;;;;;;0.40;0.30;;;13.70;99.90;;;;;;4990150;28;20429;-72
2021/06/10 01:52:09;;;;;;;0.40;0.30;;;13.70;99.90;;;;;;4991002;28;20375;-72
2021/06/10 01:54:36;;;;;;;0.40;0.20;;;13.80;99.90;;;;;;4990057;28;20383;-72
2021/06/10 01:57:07;;;;;;;0.40;0.30;;;13.80;99.90;;;;;;4992209;28;20390;-72
2021/06/10 01:59:34;;;;;;;0.40;0.30;;;13.70;99.90;;;;;;4993613;28;20746;-72
2021/06/10 02:02:05;;;;;;;0.40;0.20;;;13.70;99.90;;;;;;4994231;28;20390;-73
2021/06/10 02:04:32;;;;;;;0.40;0.20;;;13.70;99.90;;;;;;4992226;28;20871;-73
2021/06/10 02:06:59;;;;;;;0.40;0.30;;;13.70;99.90;;;;;;4994323;28;20403;-72
2021/06/10 02:09:25;;;;;;;0.40;0.20;;;13.70;99.90;;;;;;4993839;28;20418;-74
2021/06/10 02:11:51;;;;;;;0.40;0.20;;;13.70;99.90;;;;;;4993733;28;20383;-72
2021/06/10 02:14:19;;;;;;;0.40;0.20;;;13.70;99.90;;;;;;4993580;28;20422;-72
2021/06/10 02:16:46;;;;;;;0.40;0.20;;;13.70;99.90;;;;;;4993324;28;20389;-72
2021/06/10 02:19:14;;;;;;;0.40;0.30;;;13.70;99.90;;;;;;4993637;28;20398;-72
2021/06/10 02:21:40;;;;;;;0.40;0.20;;;13.70;99.90;;;;;;4993342;28;20382;-72
2021/06/10 02:24:06;;;;;;;0.40;0.20;;;13.70;99.90;;;;;;4993276;28;20390;-73
2021/06/10 02:26:31;;;;;;;0.40;0.20;;;13.60;99.90;;;;;;4993200;28;20411;-73
2021/06/10 02:28:57;;;;;;;0.40;0.20;;;13.60;99.90;;;;;;4993619;28;20461;-73
2021/06/10 02:31:23;;;;;;;0.40;0.30;;;13.60;99.90;;;;;;4993876;28;20426;-72
2021/06/10 02:33:48;;;;;;;0.40;0.20;;;13.60;99.90;;;;;;4992986;28;20807;-72
2021/06/10 02:36:17;;;;;;;0.40;0.30;;;13.60;99.90;;;;;;4993178;28;20422;-72
2021/06/10 02:38:53;;;;;;;0.40;0.20;;;13.60;99.90;;;;;;4992809;28;20406;-72
2021/06/10 02:41:21;;;;;;;0.40;0.25;;;13.60;99.90;;;;;;4993576;28;20486;-72
2021/06/10 02:43:50;;;;;;;0.40;0.30;;;13.60;99.90;;;;;;4992843;28;20394;-72
2021/06/10 02:46:17;;;;;;;0.40;0.30;;;13.60;99.90;;;;;;4993552;28;20465;-72
2021/06/10 02:48:43;;;;;;;0.40;0.30;;;13.50;99.90;;;;;;4992558;28;20411;-72
2021/06/10 02:51:10;;;;;;;0.40;0.20;;;13.50;99.90;;;;;;4993627;28;20477;-72
2021/06/10 02:53:38;;;;;;;0.40;0.20;;;13.50;99.90;;;;;;4991799;28;20441;-72
2021/06/10 02:56:07;;;;;;;0.85;0.57;;;13.50;99.90;;;;;;4993046;28;20875;-72
2021/06/10 02:58:33;;;;;;;0.40;0.30;;;13.40;99.90;;;;;;4992184;28;20867;-73
2021/06/10 03:01:03;;;;;;;0.40;0.20;;;13.50;99.90;;;;;;4992741;28;20387;-72
2021/06/10 03:03:29;;;;;;;0.40;0.30;;;13.40;99.90;;;;;;4992470;28;20383;-74
2021/06/10 03:05:57;;;;;;;0.40;0.20;;;13.50;99.90;;;;;;4992773;28;20494;-72
2021/06/10 03:08:24;;;;;;;0.40;0.40;;;13.40;99.90;;;;;;4992271;28;20394;-73
2021/06/10 03:10:50;;;;;;;0.40;0.20;;;13.50;99.90;;;;;;4992367;28;20381;-72
2021/06/10 03:13:18;;;;;;;0.40;0.20;;;13.50;99.90;;;;;;4992731;28;20483;-72
2021/06/10 03:15:44;;;;;;;0.40;0.20;;;13.40;99.90;;;;;;4992300;28;20401;-72
2021/06/10 03:18:12;;;;;;;0.40;0.30;;;13.40;99.90;;;;;;4992969;28;20445;-72
2021/06/10 03:20:39;;;;;;;0.40;0.20;;;13.40;99.90;;;;;;4992197;28;20925;-73
2021/06/10 03:23:05;;;;;;;0.40;0.20;;;13.30;99.90;;;;;;4992826;28;20379;-72
2021/06/10 03:25:31;;;;;;;0.40;0.20;;;13.30;99.90;;;;;;4992548;28;20461;-74
2021/06/10 03:27:57;;;;;;;0.40;0.20;;;13.40;99.90;;;;;;4992537;28;20386;-72
2021/06/10 03:30:23;;;;;;;0.40;0.30;;;13.40;99.90;;;;;;4992792;28;20847;-72
2021/06/10 03:32:50;;;;;;;0.40;0.20;;;13.40;99.90;;;;;;4991960;28;20965;-72
2021/06/10 03:35:17;;;;;;;0.40;0.20;;;13.40;99.90;;;;;;5007701;28;20832;-72
2021/06/10 03:37:43;;;;;;;0.40;0.30;;;13.30;99.90;;;;;;4991885;28;20889;-72
2021/06/10 03:40:11;;;;;;;0.40;0.20;;;13.30;99.90;;;;;;4991528;28;20386;-72
2021/06/10 03:42:37;;;;;;;0.40;0.20;;;13.50;99.90;;;;;;4991669;28;20398;-72
2021/06/10 03:45:05;;;;;;;0.40;0.20;;;13.40;99.90;;;;;;4992641;28;20401;-72
2021/06/10 03:47:32;;;;;;;0.40;0.30;;;13.30;99.90;;;;;;4991763;28;20398;-74
2021/06/10 03:49:59;;;;;;;0.40;0.20;;;13.30;99.90;;;;;;4991761;28;20415;-72
2021/06/10 03:52:27;;;;;;;0.40;0.25;;;13.20;99.90;;;;;;4992311;28;20550;-72
2021/06/10 03:54:54;;;;;;;0.40;0.20;;;13.40;99.90;;;;;;4991406;28;20961;-72
2021/06/10 03:57:20;;;;;;;0.40;0.20;;;13.40;99.90;;;;;;4992206;28;20502;-72
2021/06/10 03:59:45;;;;;;;0.40;0.20;;;13.40;99.90;;;;;;4991128;28;20481;-72
2021/06/10 04:02:11;;;;;;;0.40;0.30;;;13.50;99.90;;;;;;4991955;28;20401;-72
2021/06/10 04:04:37;;;;;;;0.40;0.30;;;13.50;99.90;;;;;;4991285;28;20450;-73
2021/06/10 04:07:03;;;;;;;0.40;0.20;;;13.40;99.90;;;;;;4992353;28;20386;-72
2021/06/10 04:09:28;;;;;;;0.80;0.50;;;13.40;99.90;;;;;;4991970;28;20957;-73
2021/06/10 04:11:54;;;;;;;0.40;0.20;;;13.40;99.90;;;;;;4991222;28;20477;-72
2021/06/10 04:14:20;;;;;;;0.40;0.20;;;13.40;99.90;;;;;;4991667;28;20421;-73
2021/06/10 04:16:45;;;;;;;0.40;0.30;;;13.40;99.90;;;;;;4991149;28;20422;-73
2021/06/10 04:19:12;;;;;;;0.40;0.20;;;13.40;99.90;;;;;;4991511;28;20383;-73
2021/06/10 04:21:38;;;;;;;0.40;0.20;;;13.40;99.90;;;;;;4991098;28;20382;-73
2021/06/10 04:24:04;;;;;;;0.40;0.20;;;13.50;99.90;;;;;;4991605;28;20743;-72
2021/06/10 04:26:30;;;;;;;0.40;0.20;;;13.60;99.90;;;;;;4992073;28;20390;-72
2021/06/10 04:28:56;;;;;;;0.40;0.30;;;13.50;99.90;;;;;;4990663;28;20421;-72
2021/06/10 04:31:22;;;;;;;0.40;0.20;;;13.50;99.90;;;;;;4991659;28;20386;-71
2021/06/10 04:33:49;;;;;;;0.40;0.30;;;13.60;99.90;;;;;;4990600;28;20433;-73
2021/06/10 04:36:15;;;;;;;0.40;0.22;;;13.60;99.90;;;;;;4991657;28;20386;-72
2021/06/10 04:38:41;;;;;;;0.40;0.20;;;13.80;99.90;;;;;;4990864;28;20751;-73
2021/06/10 04:41:08;;;;;;;0.40;0.20;;;13.80;99.90;;;;;;4991534;28;20383;-73
2021/06/10 04:43:34;;;;;;;0.40;0.20;;;13.80;99.90;;;;;;4991247;28;20405;-74
2021/06/10 04:45:59;;;;;;;0.40;0.20;;;13.80;99.90;;;;;;4991025;28;20851;-73
2021/06/10 04:48:26;;;;;;;0.40;0.30;;;13.90;99.90;;;;;;4991356;28;20386;-73
2021/06/10 04:50:52;;;;;;;0.40;0.20;;;14.00;99.90;;;;;;4990706;28;20391;-73
2021/06/10 04:53:19;;;;;;;0.40;0.30;;;14.10;99.90;;;;;;4991540;28;20410;-73
2021/06/10 04:55:45;;;;;;;0.40;0.20;;;14.10;99.90;;;;;;4990562;28;20771;-73
2021/06/10 04:58:12;;;;;;;0.40;0.20;;;14.30;99.90;;;;;;4991461;28;20382;-73
2021/06/10 05:00:38;;;;;;;0.40;0.30;;;14.40;99.90;;;;;;4990480;28;20395;-74
2021/06/10 05:03:05;;;;;;;0.40;0.20;;;14.40;99.90;;;;;;4991345;28;20394;-73
2021/06/10 05:05:31;;;;;;;0.40;0.20;;;14.50;99.90;;;;;;4991348;28;20394;-73
2021/06/10 05:07:56;;;;;;;0.40;0.30;;;14.70;99.90;;;;;;4990971;28;20402;-73
2021/06/10 05:10:22;;;;;;;0.40;0.20;;;14.80;99.90;;;;;;4990985;28;20445;-73
2021/06/10 05:12:48;;;;;;;0.40;0.20;;;14.80;99.90;;;;;;4990610;28;20449;-74
2021/06/10 05:15:14;;;;;;;0.40;0.20;;;14.90;99.90;;;;;;4991230;28;20421;-74
2021/06/10 05:17:39;;;;;;;0.40;0.20;;;15.00;99.90;;;;;;4989671;28;20434;-74
2021/06/10 05:20:06;;;;;;;0.40;0.27;;;15.10;99.90;;;;;;4986062;28;20418;-74
2021/06/10 05:22:31;;;;;;;0.40;0.20;;;15.10;99.90;;;;;;4981914;28;20394;-74
2021/06/10 05:24:57;;;;;;;0.40;0.30;;;15.20;99.90;;;;;;4990304;28;20385;-74
2021/06/10 05:27:23;;;;;;;0.40;0.20;;;15.30;99.90;;;;;;4991186;28;20438;-74
2021/06/10 05:29:48;;;;;;;0.40;0.30;;;15.40;99.90;;;;;;4989851;28;20449;-74
2021/06/10 05:32:14;;;;;;;0.40;0.20;;;15.60;99.90;;;;;;4991002;28;20402;-73
2021/06/10 05:34:40;;;;;;;0.40;0.20;;;15.70;99.90;;;;;;4994062;28;20378;-75
2021/06/10 05:37:05;;;;;;;0.40;0.30;;;15.80;99.90;;;;;;4994428;28;20394;-73
2021/06/10 05:39:31;;;;;;;0.40;0.20;;;15.90;99.90;;;;;;4994869;28;20397;-74
2021/06/10 05:41:57;;;;;;;0.40;0.30;;;16.10;99.90;;;;;;4993607;28;20441;-74
2021/06/10 05:44:23;;;;;;;0.40;0.30;;;16.10;99.90;;;;;;4994271;28;20410;-74
2021/06/10 05:46:49;;;;;;;0.40;0.30;;;16.30;99.90;;;;;;4993870;28;20390;-74
2021/06/10 05:49:16;;;;;;;0.40;0.20;;;16.40;99.90;;;;;;4994742;28;20410;-72
2021/06/10 05:51:42;;;;;;;0.40;0.30;;;16.50;99.90;;;;;;4994518;28;20390;-72
2021/06/10 05:54:08;;;;;;;0.40;0.30;;;16.60;99.90;;;;;;4993689;28;20811;-73
2021/06/10 05:56:33;;;;;;;0.40;0.30;;;16.70;99.90;;;;;;4993878;28;20386;-73
2021/06/10 05:58:59;;;;;;;0.40;0.20;;;16.80;99.90;;;;;;4993158;28;20738;-73
2021/06/10 06:01:24;;;;;;;0.40;0.20;;;16.90;99.90;;;;;;4991252;28;20464;-73
2021/06/10 06:03:50;;;;;;;0.40;0.20;;;16.90;99.90;;;;;;4991580;28;20394;-74
2021/06/10 06:06:18;;;;;;;0.40;0.30;;;17.10;99.90;;;;;;4989025;28;20754;-73
2021/06/10 06:08:44;;;;;;;0.40;0.30;;;17.10;99.90;;;;;;4972327;28;21719;-73
2021/06/10 06:11:10;;;;;;;0.40;0.20;;;17.30;99.90;;;;;;4973538;28;20442;-73
2021/06/10 06:13:46;;;;;;;0.40;0.30;;;17.30;99.90;;;;;;4971408;28;20523;-74
2021/06/10 06:16:15;;;;;;;0.40;0.20;;;17.30;99.90;;;;;;4971980;28;20427;-74
2021/06/10 06:18:41;;;;;;;0.40;0.30;;;17.30;99.90;;;;;;4970866;28;20400;-76
2021/06/10 06:21:08;;;;;;;0.40;0.30;;;17.40;99.90;;;;;;4968653;28;20386;-75
2021/06/10 06:23:33;;;;;;;0.40;0.30;;;17.40;99.90;;;;;;4970379;28;20462;-75
2021/06/10 06:26:00;;;;;;;0.40;0.30;;;17.40;99.90;;;;;;4968868;28;20391;-76
2021/06/10 06:28:26;;;;;;;0.40;0.30;;;17.50;99.90;;;;;;4968792;28;20395;-75
2021/06/10 06:30:52;;;;;;;0.40;0.20;;;17.50;99.90;;;;;;4967263;28;20561;-75
2021/06/10 06:33:18;;;;;;;0.40;0.28;;;17.50;99.90;;;;;;4970515;28;20387;-75
2021/06/10 06:35:45;;;;;;;0.40;0.30;;;17.60;99.90;;;;;;4970485;28;20390;-77
2021/06/10 06:38:11;;;;;;;0.40;0.30;;;17.70;99.90;;;;;;4969492;28;20399;-74
2021/06/10 06:40:38;;;;;;;0.40;0.30;;;17.70;99.90;;;;;;4991167;28;20499;-75
2021/06/10 06:43:05;;;;;;;0.40;0.30;;;17.70;99.90;;;;;;4969510;28;20499;-74
2021/06/10 06:45:31;;;;;;;0.40;0.20;;;17.70;99.90;;;;;;4970109;28;20461;-74
2021/06/10 06:47:57;;;;;;;0.40;0.20;;;17.80;99.90;;;;;;4968292;28;20398;-75
2021/06/10 06:50:23;;;;;;;0.40;0.20;;;17.80;99.90;;;;;;4969016;28;20426;-74
2021/06/10 06:52:48;;;;;;;0.40;0.30;;;18.00;99.90;;;;;;4968507;28;20436;-75
2021/06/10 06:55:14;;;;;;;0.40;0.20;;;18.20;99.90;;;;;;4984389;28;20434;-74
2021/06/10 06:57:40;;;;;;;0.40;0.30;;;18.30;99.90;;;;;;4970925;28;20478;-73
2021/06/10 07:00:07;;;;;;;0.40;0.30;;;18.30;99.90;;;;;;4968801;28;20403;-74
2021/06/10 07:02:32;;;;;;;0.40;0.20;;;18.30;99.90;;;;;;4968836;28;20479;-74
2021/06/10 07:04:58;;;;;;;0.40;0.30;;;18.40;99.90;;;;;;4968815;28;20458;-73
2021/06/10 07:07:24;;;;;;;0.40;0.20;;;18.60;99.90;;;;;;4970166;28;20398;-73
2021/06/10 07:09:49;;;;;;;0.40;0.27;;;18.70;99.90;;;;;;4967755;28;20428;-73
2021/06/10 07:12:15;;;;;;;0.40;0.20;;;18.80;99.90;;;;;;4966728;28;20953;-74
2021/06/10 07:14:41;;;;;;;0.40;0.30;;;18.80;99.90;;;;;;4968798;28;20414;-73
2021/06/10 07:17:06;;;;;;;0.40;0.30;;;18.80;99.90;;;;;;4973923;28;21695;-74
2021/06/10 07:19:32;;;;;;;0.40;0.30;;;19.00;99.90;;;;;;4969832;28;20470;-73
2021/06/10 07:21:58;;;;;;;0.40;0.30;;;19.20;99.90;;;;;;4967134;28;20400;-73
2021/06/10 07:24:23;;;;;;;0.40;0.30;;;19.30;99.90;;;;;;4969293;28;20460;-73
2021/06/10 07:26:49;;;;;;;0.40;0.20;;;19.30;99.90;;;;;;4967361;28;20387;-74
2021/06/10 07:29:16;;;;;;;0.40;0.30;;;19.30;99.90;;;;;;4968615;28;20431;-74
2021/06/10 07:31:42;;;;;;;0.40;0.30;;;19.40;99.90;;;;;;4966901;28;20395;-74
2021/06/10 07:34:08;;;;;;;0.40;0.30;;;19.60;99.90;;;;;;4969128;28;20485;-75
2021/06/10 07:36:35;;;;;;;0.40;0.27;;;19.70;99.90;;;;;;4969447;28;20482;-71
2021/06/10 07:39:02;;;;;;;0.40;0.30;;;19.70;99.90;;;;;;4969236;28;20480;-74
2021/06/10 07:41:28;;;;;;;0.40;0.30;;;19.60;99.90;;;;;;4966913;28;20398;-74
2021/06/10 07:43:54;;;;;;;0.40;0.40;;;19.50;99.90;;;;;;4968700;28;21674;-75
2021/06/10 07:46:20;;;;;;;0.40;0.20;;;19.50;99.90;;;;;;4969322;28;20388;-74
2021/06/10 07:48:46;;;;;;;0.40;0.30;;;19.40;99.90;;;;;;4969818;28;20422;-75
2021/06/10 07:51:12;;;;;;;0.40;0.30;;;19.50;99.90;;;;;;4966658;28;20397;-74
2021/06/10 07:53:38;;;;;;;0.40;0.20;;;19.60;99.90;;;;;;4965615;28;20801;-75
2021/06/10 07:56:05;;;;;;;0.40;0.20;;;19.70;99.90;;;;;;4966844;28;20927;-73
2021/06/10 07:58:32;;;;;;;0.40;0.30;;;19.70;99.90;;;;;;4969982;28;20404;-74
2021/06/10 08:00:58;;;;;;;0.40;0.20;;;19.70;99.90;;;;;;4968170;28;20426;-73
2021/06/10 08:03:24;;;;;;;0.40;0.30;;;19.70;99.90;;;;;;4967631;28;20425;-73
2021/06/10 08:05:50;;;;;;;0.40;0.30;;;19.80;99.90;;;;;;4967631;28;20978;-71
2021/06/10 08:08:16;;;;;;;0.40;0.30;;;19.90;99.90;;;;;;4969311;28;20489;-73
2021/06/10 08:10:42;;;;;;;0.40;0.20;;;19.90;99.90;;;;;;4966759;28;20432;-73
2021/06/10 08:13:11;;;;;;;0.40;0.30;;;19.90;99.90;;;;;;4966533;28;21013;-73
2021/06/10 08:15:37;;;;;;;0.40;0.20;;;19.80;99.90;;;;;;4967617;28;20793;-73
2021/06/10 08:18:04;;;;;;;0.40;0.20;;;19.90;99.90;;;;;;4967163;28;20407;-74
2021/06/10 08:20:30;;;;;;;0.40;0.30;;;19.90;99.90;;;;;;4966943;28;20401;-73
2021/06/10 08:22:59;;;;;;;0.40;0.20;;;19.90;99.90;;;;;;4968153;28;20887;-73
2021/06/10 08:25:29;;;;;;;0.40;0.30;;;19.90;99.90;;;;;;4968631;28;21012;-73
2021/06/10 08:27:56;;;;;;;0.40;0.20;;;19.90;99.90;;;;;;4969221;28;20890;-74
2021/06/10 08:30:23;;;;;;;0.40;0.30;;;20.10;99.90;;;;;;4965712;28;20420;-73
2021/06/10 08:32:48;;;;;;;0.40;0.30;;;20.10;99.90;;;;;;4967820;28;20408;-74
2021/06/10 08:35:14;;;;;;;0.40;0.30;;;20.10;99.90;;;;;;4966502;28;20447;-73
2021/06/10 08:37:41;;;;;;;0.40;0.30;;;20.10;99.90;;;;;;4967795;28;21614;-73
2021/06/10 08:40:10;;;;;;;0.40;0.20;;;20.40;99.90;;;;;;4967261;28;20658;-74
2021/06/10 08:42:47;;;;;;;0.40;0.30;;;20.40;99.90;;;;;;4967624;28;20438;-74
2021/06/10 08:45:14;;;;;;;0.40;0.30;;;20.40;99.90;;;;;;4966504;28;20401;-72
2021/06/10 08:47:42;;;;;;;0.40;0.20;;;20.50;99.90;;;;;;4967003;28;21035;-74
2021/06/10 08:50:12;;;;;;;0.40;0.20;;;20.60;99.90;;;;;;4966903;28;20438;-75
2021/06/10 08:52:38;;;;;;;0.40;0.30;;;20.50;99.90;;;;;;4990000;28;20883;-74
2021/06/10 08:55:05;;;;;;;0.40;0.20;;;20.70;99.90;;;;;;4967545;28;20393;-75
2021/06/10 08:57:31;;;;;;;0.40;0.30;;;20.70;99.90;;;;;;4968021;28;20435;-75
2021/06/10 08:59:56;;;;;;;0.40;0.30;;;20.70;99.90;;;;;;4967847;28;20398;-72
2021/06/10 09:02:22;;;;;;;0.40;0.20;;;20.90;99.90;;;;;;4966804;28;20400;-76
2021/06/10 09:04:48;;;;;;;0.40;0.20;;;20.90;99.90;;;;;;4967154;28;20955;-75
2021/06/10 09:07:14;;;;;;;0.50;0.30;;;21.00;99.90;;;;;;4968662;28;20823;-75
2021/06/10 09:09:41;;;;;;;0.40;0.30;;;20.90;99.90;;;;;;4970557;28;20916;-74
2021/06/10 09:12:13;;;;;;;0.40;0.30;;;20.90;99.90;;;;;;4970454;28;21151;-73
2021/06/10 09:14:58;;;;;;;0.40;0.30;;;21.10;99.90;;;;;;4971684;28;20462;-74
2021/06/10 09:17:35;;;;;;;0.40;0.30;;;21.40;99.90;;;;;;4972346;28;20407;-71
2021/06/10 09:20:25;;;;;;;0.40;0.30;;;21.30;99.90;;;;;;4971477;28;20392;-74
2021/06/10 09:23:06;;;;;;;0.40;0.20;;;21.30;99.90;;;;;;4970694;28;20487;-74
2021/06/10 09:25:32;;;;;;;0.40;0.20;;;21.30;99.90;;;;;;4970484;28;20745;-74
2021/06/10 09:28:01;;;;;;;0.40;0.30;;;21.30;99.90;;;;;;4969880;28;20400;-73
2021/06/10 09:30:32;;;;;;;0.40;0.30;;;21.30;99.90;;;;;;4970140;28;20430;-75
2021/06/10 09:33:00;;;;;;;0.40;0.30;;;21.30;99.90;;;;;;4970891;28;20403;-72
2021/06/10 09:35:31;;;;;;;0.40;0.30;;;21.40;99.90;;;;;;4971079;28;20392;-74
2021/06/10 09:38:02;;;;;;;0.40;0.30;;;21.50;99.90;;;;;;4970831;28;20400;-74
2021/06/10 09:40:31;;;;;;;0.40;0.30;;;21.40;99.90;;;;;;4969982;28;21778;-74
2021/06/10 09:42:58;;;;;;;0.40;0.30;;;21.50;99.90;;;;;;4969711;28;20431;-75
2021/06/10 09:45:28;;;;;;;0.40;0.30;;;21.70;99.90;;;;;;4970967;28;20404;-74
2021/06/10 09:47:56;;;;;;;0.40;0.30;;;22.00;99.90;;;;;;4971430;28;20530;-75
2021/06/10 09:50:29;;;;;;;0.40;0.30;;;22.00;99.90;;;;;;4969415;28;20425;-73
2021/06/10 09:53:00;;;;;;;0.40;0.22;;;22.10;99.90;;;;;;4971408;28;20398;-74
2021/06/10 09:55:43;;;;;;;0.40;0.20;;;22.00;99.90;;;;;;4971098;28;21226;-72
2021/06/10 09:58:11;;;;;;;0.40;0.30;;;22.10;99.90;;;;;;4970166;28;20404;-74
2021/06/10 10:00:38;;;;;;;0.40;0.20;;;22.10;99.90;;;;;;4969684;28;20399;-74
2021/06/10 10:03:03;;;;;;;0.40;0.30;;;22.00;99.90;;;;;;4970069;28;20414;-74
2021/06/10 10:05:29;;;;;;;0.40;0.20;;;22.20;99.90;;;;;;4969806;28;20396;-74
2021/06/10 10:07:55;;;;;;;0.40;0.30;;;22.30;99.90;;;;;;4968747;28;21035;-74
2021/06/10 10:10:22;;;;;;;0.40;0.20;;;22.30;99.90;;;;;;4969022;28;20515;-72
2021/06/10 10:12:50;;;;;;;0.40;0.20;;;22.20;99.90;;;;;;4970500;28;20405;-74
2021/06/10 10:15:17;;;;;;;0.40;0.30;;;22.40;99.90;;;;;;4968686;28;20416;-74
2021/06/10 10:17:45;;;;;;;0.40;0.20;;;22.50;99.90;;;;;;4969713;28;20469;-74
2021/06/10 10:20:13;;;;;;;0.40;0.30;;;22.50;99.90;;;;;;4970222;28;20429;-74
2021/06/10 10:22:39;;;;;;;0.40;0.30;;;22.60;99.90;;;;;;4969428;28;20461;-74
2021/06/10 10:25:06;;;;;;;0.40;0.30;;;22.60;99.90;;;;;;4970895;28;20471;-74
2021/06/10 10:27:31;;;;;;;0.40;0.30;;;22.70;99.90;;;;;;4969700;28;20415;-74
2021/06/10 10:29:58;;;;;;;0.40;0.20;;;22.70;99.90;;;;;;4969368;28;20422;-75
2021/06/10 10:32:28;;;;;;;0.40;0.40;;;22.70;99.90;;;;;;4968059;28;20482;-73
2021/06/10 10:35:24;;;;;;;0.40;0.20;;;23.00;99.90;;;;;;4969790;28;20391;-72
2021/06/10 10:37:51;;;;;;;0.40;0.30;;;23.10;99.90;;;;;;4970630;28;20396;-74
2021/06/10 10:40:28;;;;;;;0.40;0.30;;;23.10;99.90;;;;;;4967696;28;20459;-74
2021/06/10 10:43:14;;;;;;;0.40;0.30;;;22.90;99.90;;;;;;4951394;28;20477;-75
2021/06/10 10:45:45;;;;;;;0.40;0.30;;;23.10;99.90;;;;;;4969106;28;20418;-71
2021/06/10 10:48:14;;;;;;;0.40;0.22;;;23.20;99.90;;;;;;4969119;28;20441;-72
2021/06/10 10:50:43;;;;;;;0.40;0.30;;;23.20;99.90;;;;;;4969113;28;20418;-74
2021/06/10 10:53:17;;;;;;;0.40;0.30;;;23.30;99.90;;;;;;4969844;28;20473;-74
2021/06/10 10:55:43;;;;;;;0.40;0.30;;;23.20;99.90;;;;;;4969554;28;20426;-74
2021/06/10 10:58:19;;;;;;;0.40;0.20;;;23.10;99.90;;;;;;4968054;28;20479;-74
2021/06/10 11:00:52;;;;;;;0.40;0.30;;;23.30;99.90;;;;;;4969284;28;20400;-73
2021/06/10 11:03:39;;;;;;;0.40;0.20;;;23.40;99.90;;;;;;4968821;28;20485;-74
2021/06/10 11:06:20;;;;;;;0.40;0.30;;;23.40;99.90;;;;;;4968156;28;20474;-74
2021/06/10 11:09:03;;;;;;;0.40;0.30;;;23.70;99.90;;;;;;4970724;28;20430;-70
2021/06/10 11:11:54;;;;;;;0.40;0.30;;;23.80;99.90;;;;;;4967010;28;20593;-71
2021/06/10 11:14:49;;;;;;;0.40;0.20;;;23.70;99.90;;;;;;4967536;28;20421;-72
2021/06/10 11:17:21;;;;;;;0.40;0.20;;;23.90;99.90;;;;;;4969554;28;20399;-74
2021/06/10 11:19:55;;;;;;;0.40;0.20;;;24.10;99.90;;;;;;4968436;28;20517;-73
2021/06/10 11:22:37;;;;;;;0.40;0.20;;;24.10;99.90;;;;;;4966095;28;20751;-73
2021/06/10 11:25:17;;;;;;;0.40;0.30;;;24.30;99.90;;;;;;4969000;28;20415;-73
2021/06/10 11:27:47;;;;;;;0.40;0.30;;;24.60;99.90;;;;;;4968850;28;21674;-74
2021/06/10 11:30:28;;;;;;;0.40;0.20;;;24.90;99.90;;;;;;4966695;28;20457;-72
2021/06/10 11:33:07;;;;;;;0.40;0.20;;;24.60;99.90;;;;;;4969342;28;20400;-73
2021/06/10 11:35:38;;;;;;;0.40;0.30;;;24.70;99.90;;;;;;4968048;28;20926;-73
2021/06/10 11:38:10;;;;;;;0.40;0.30;;;25.40;99.90;;;;;;4968768;28;20482;-74
2021/06/10 11:40:37;;;;;;;0.40;0.30;;;25.40;99.90;;;;;;4967703;28;20817;-73
2021/06/10 11:43:08;;;;;;;0.40;0.30;;;25.40;99.80;;;;;;4957516;28;20422;-71
2021/06/10 11:45:34;;;;;;;0.40;0.20;;;25.80;99.40;;;;;;4969003;28;20404;-71
2021/06/10 11:48:00;;;;;;;0.40;0.22;;;26.00;98.50;;;;;;4968563;28;21233;-73
2021/06/10 11:50:36;;;;;;;0.40;0.20;;;26.10;97.70;;;;;;4967005;28;20418;-74
2021/06/10 11:53:06;;;;;;;0.40;0.20;;;26.60;99.60;;;;;;4969088;28;20410;-75
2021/06/10 11:55:33;;;;;;;0.40;0.20;;;26.40;97.20;;;;;;4970007;28;20391;-75
2021/06/10 11:58:11;;;;;;;0.40;0.30;;;26.70;94.60;;;;;;4968215;28;20534;-74
2021/06/10 12:00:42;;;;;;;0.40;0.30;;;27.40;95.10;;;;;;4965324;28;20399;-74
2021/06/10 12:03:13;;;;;;;0.40;0.30;;;28.10;95.40;;;;;;4967918;28;20391;-75
2021/06/10 12:05:55;;;;;;;0.40;0.30;;;27.50;94.30;;;;;;4967884;28;20401;-74
2021/06/10 12:08:25;;;;;;;0.40;0.30;;;27.10;92.40;;;;;;4967969;28;20424;-74
2021/06/10 12:11:08;;;;;;;0.40;0.20;;;27.10;96.60;;;;;;4966498;28;20531;-74
2021/06/10 12:13:36;;;;;;;0.40;0.20;;;26.70;96.30;;;;;;4968511;28;20498;-74
2021/06/10 12:16:07;;;;;;;0.40;0.20;;;26.00;99.50;;;;;;4968656;28;20396;-73
2021/06/10 12:18:34;;;;;;;0.40;0.20;;;25.40;99.20;;;;;;4968062;28;20395;-74
2021/06/10 12:21:09;;;;;;;0.43;0.30;;;25.00;97.40;;;;;;4967665;28;20471;-74
2021/06/10 12:23:38;;;;;;;0.40;0.20;;;24.90;97.70;;;;;;4969683;28;20410;-73
2021/06/10 12:26:04;;;;;;;0.40;0.20;;;24.40;97.30;;;;;;4966926;28;20473;-72
2021/06/10 12:28:45;;;;;;;0.40;0.30;;;24.00;97.90;;;;;;4968393;28;20390;-74
2021/06/10 12:31:15;;;;;;;0.40;0.30;;;23.40;99.90;;;;;;4966081;28;20411;-74
2021/06/10 12:33:46;;;;;;;0.40;0.20;;;23.20;99.90;;;;;;4968995;28;20457;-74
2021/06/10 12:36:30;;;;;;;0.40;0.20;;;23.00;99.90;;;;;;4968027;28;20399;-74
2021/06/10 12:39:03;;;;;;;0.40;0.20;;;22.70;99.90;;;;;;4968693;28;20406;-75
2021/06/10 12:41:34;;;;;;;0.40;0.30;;;22.40;99.90;;;;;;4965145;28;20504;-73
2021/06/10 12:44:13;;;;;;;0.40;0.20;;;22.20;99.90;;;;;;4967511;28;20426;-74
2021/06/10 12:46:49;;;;;;;0.40;0.30;;;22.10;99.90;;;;;;4968218;28;20409;-73
2021/06/10 12:49:17;;;;;;;0.40;0.20;;;22.10;99.90;;;;;;4967816;28;20422;-74
2021/06/10 12:51:47;;;;;;;0.40;0.30;;;21.70;99.90;;;;;;4964338;28;20953;-74
2021/06/10 12:54:18;;;;;;;0.40;0.30;;;20.90;99.90;;;;;;4967996;28;20441;-75